Time;durP1;ratioP1;P1;durP2;ratioP2;P2;SDS_P1;SDS_P2;PMS_P1;PMS_P2;Temp;Humidity;BMP_temperature;BMP_pressure;BME280_temperature;BME280_humidity;BME280_pressure;Samples;Min_cycle;Max_cycle;Signal;HPM_P1;HPM_P2
2022/09/27 00:02:14;;;;;;;4.18;0.70;;;12.10;88.00;;;;;;5094787;28;20025;-71
2022/09/27 00:04:39;;;;;;;4.85;0.77;;;12.10;88.00;;;;;;5094514;28;20052;-71
2022/09/27 00:07:06;;;;;;;3.88;0.70;;;12.00;88.20;;;;;;5095783;28;20028;-71
2022/09/27 00:09:32;;;;;;;4.95;0.55;;;12.00;88.30;;;;;;5095578;28;20025;-71
2022/09/27 00:11:57;;;;;;;3.42;1.05;;;12.00;88.30;;;;;;5095512;28;20023;-71
2022/09/27 00:14:23;;;;;;;3.33;0.98;;;12.00;88.20;;;;;;5095492;28;20029;-71
2022/09/27 00:16:48;;;;;;;4.82;0.95;;;12.00;88.10;;;;;;5095452;28;20021;-71
2022/09/27 00:19:20;;;;;;;4.47;0.60;;;12.00;88.00;;;;;;5095386;28;20051;-71
2022/09/27 00:21:47;;;;;;;6.38;0.60;;;12.00;88.20;;;;;;5095331;28;20025;-71
2022/09/27 00:24:14;;;;;;;2.50;0.52;;;12.00;88.30;;;;;;5095319;28;20032;-71
2022/09/27 00:26:40;;;;;;;5.10;0.82;;;12.00;88.30;;;;;;5095248;28;20028;-71
2022/09/27 00:29:06;;;;;;;2.20;0.80;;;12.00;89.00;;;;;;5094123;28;20036;-71
2022/09/27 00:31:32;;;;;;;3.85;0.65;;;12.00;88.20;;;;;;5095157;28;20051;-70
2022/09/27 00:34:00;;;;;;;6.95;0.88;;;12.00;88.20;;;;;;5095112;28;20024;-70
2022/09/27 00:36:27;;;;;;;3.55;1.05;;;12.00;88.10;;;;;;5094977;28;20059;-70
2022/09/27 00:38:54;;;;;;;4.22;0.98;;;12.00;87.90;;;;;;5095001;28;20024;-71
2022/09/27 00:41:25;;;;;;;3.97;0.70;;;12.00;88.00;;;;;;5094885;28;20025;-70
2022/09/27 00:43:57;;;;;;;2.88;1.00;;;12.00;88.00;;;;;;5094961;28;20020;-71
2022/09/27 00:46:40;;;;;;;1.65;0.40;;;12.00;87.90;;;;;;5094908;28;20021;-71
2022/09/27 00:49:08;;;;;;;;;;;12.00;87.90;;;;;;5095102;28;20031;-70
2022/09/27 00:51:37;;;;;;;4.35;0.93;;;12.00;88.00;;;;;;5094779;28;19911;-71
2022/09/27 00:54:04;;;;;;;4.10;0.55;;;11.90;88.10;;;;;;5094697;28;20025;-71
2022/09/27 00:56:31;;;;;;;3.50;0.60;;;11.90;88.30;;;;;;5094597;28;20016;-71
2022/09/27 00:59:10;;;;;;;4.57;0.80;;;11.90;88.20;;;;;;5094591;28;20029;-71
2022/09/27 01:01:36;;;;;;;1.40;0.40;;;12.00;88.10;;;;;;5093550;28;20480;-71
2022/09/27 01:04:06;;;;;;;6.03;0.70;;;11.90;88.10;;;;;;5093396;28;20051;-71
2022/09/27 01:06:32;;;;;;;4.00;0.70;;;11.90;88.10;;;;;;5094524;28;20027;-71
2022/09/27 01:08:58;;;;;;;2.90;0.93;;;11.90;89.00;;;;;;5094387;28;20029;-71
2022/09/27 01:12:01;;;;;;;2.58;0.85;;;11.90;88.20;;;;;;5094340;28;20025;-70
2022/09/27 01:14:58;;;;;;;2.88;0.80;;;11.90;88.20;;;;;;5094303;28;20058;-71
2022/09/27 01:17:58;;;;;;;3.83;0.88;;;11.90;88.40;;;;;;5094365;28;20025;-71
2022/09/27 01:20:56;;;;;;;5.18;0.90;;;11.90;88.40;;;;;;5093131;28;20054;-71
2022/09/27 01:23:30;;;;;;;5.00;0.68;;;11.90;88.40;;;;;;5094155;28;20081;-71
2022/09/27 01:26:13;;;;;;;3.33;0.60;;;11.90;88.40;;;;;;5094043;28;20080;-71
2022/09/27 01:28:41;;;;;;;;;;;11.90;88.60;;;;;;5094354;28;20034;-71
2022/09/27 01:31:12;;;;;;;3.67;0.68;;;11.80;88.50;;;;;;5094093;28;19906;-71
2022/09/27 01:34:03;;;;;;;4.07;0.90;;;11.80;88.50;;;;;;5093939;28;20036;-71
2022/09/27 01:36:48;;;;;;;4.47;0.70;;;11.80;88.50;;;;;;5093957;28;20028;-71
2022/09/27 01:39:26;;;;;;;3.20;0.63;;;11.80;88.70;;;;;;5094022;28;20021;-70
2022/09/27 01:42:34;;;;;;;1.67;0.60;;;11.80;88.60;;;;;;5093767;28;20029;-71
2022/09/27 01:45:12;;;;;;;3.50;0.98;;;11.80;88.60;;;;;;5092017;28;20040;-71
2022/09/27 01:47:49;;;;;;;1.70;0.60;;;11.80;88.60;;;;;;5093729;28;20024;-71
2022/09/27 01:50:28;;;;;;;1.77;0.68;;;11.70;88.40;;;;;;5093861;28;20025;-70
2022/09/27 01:53:00;;;;;;;2.17;0.50;;;11.80;88.30;;;;;;5093711;28;20036;-71
2022/09/27 01:55:31;;;;;;;4.20;0.57;;;11.80;88.30;;;;;;5093648;28;20020;-71
2022/09/27 01:58:10;;;;;;;2.13;0.45;;;11.80;88.10;;;;;;5093627;28;20032;-71
2022/09/27 02:00:39;;;;;;;1.65;0.50;;;11.70;88.10;;;;;;5093482;28;20048;-71
2022/09/27 02:03:11;;;;;;;3.70;0.47;;;11.80;88.10;;;;;;5093388;28;20017;-71
2022/09/27 02:05:42;;;;;;;0.55;0.30;;;11.80;88.30;;;;;;5093537;28;20042;-70
2022/09/27 02:08:18;;;;;;;1.23;0.52;;;11.70;88.20;;;;;;5093498;28;20012;-70
2022/09/27 02:10:48;;;;;;;1.83;0.60;;;11.70;88.10;;;;;;5093499;28;20047;-71
2022/09/27 02:13:52;;;;;;;1.73;0.40;;;11.70;88.00;;;;;;5093433;28;20020;-71
2022/09/27 02:16:34;;;;;;;1.38;0.28;;;11.70;88.10;;;;;;5093520;28;20024;-71
2022/09/27 02:19:15;;;;;;;1.08;0.30;;;11.60;88.20;;;;;;5093374;28;20021;-71
2022/09/27 02:22:08;;;;;;;2.28;0.32;;;11.60;88.20;;;;;;5093411;28;20048;-71
2022/09/27 02:24:57;;;;;;;2.88;0.38;;;11.60;88.30;;;;;;5092935;28;20036;-71
2022/09/27 02:27:48;;;;;;;6.30;0.75;;;11.60;88.60;;;;;;5093124;28;20013;-71
2022/09/27 02:30:15;;;;;;;1.33;0.17;;;11.60;88.70;;;;;;5092999;28;20060;-70
2022/09/27 02:32:41;;;;;;;1.20;0.47;;;11.50;88.80;;;;;;5093237;28;20021;-71
2022/09/27 02:35:31;;;;;;;1.73;0.50;;;11.50;89.00;;;;;;5093195;28;20036;-71
2022/09/27 02:37:57;;;;;;;2.88;0.32;;;11.50;89.20;;;;;;5093214;28;20499;-71
2022/09/27 02:40:28;;;;;;;2.65;0.40;;;11.50;89.10;;;;;;5093111;28;20074;-70
2022/09/27 02:42:54;;;;;;;3.22;0.47;;;11.50;89.20;;;;;;5093154;28;20032;-70
2022/09/27 02:45:20;;;;;;;4.07;0.68;;;11.40;89.00;;;;;;5093086;28;20025;-70
2022/09/27 02:48:10;;;;;;;3.95;0.25;;;11.50;89.10;;;;;;5093049;28;20032;-71
2022/09/27 02:50:50;;;;;;;1.63;0.40;;;11.50;88.90;;;;;;5093243;28;20028;-70
2022/09/27 02:53:40;;;;;;;4.55;0.63;;;11.40;88.90;;;;;;5093148;28;20033;-71
2022/09/27 02:56:28;;;;;;;2.55;0.40;;;11.40;89.00;;;;;;5093043;28;20032;-71
2022/09/27 02:58:59;;;;;;;1.30;0.43;;;11.30;89.00;;;;;;5093001;28;20031;-70
2022/09/27 03:01:54;;;;;;;8.70;0.68;;;11.30;89.10;;;;;;5091890;28;20033;-71
2022/09/27 03:04:29;;;;;;;2.58;0.40;;;11.30;89.20;;;;;;5092839;28;20082;-71
2022/09/27 03:06:57;;;;;;;0.68;0.30;;;11.30;89.10;;;;;;5093140;28;20084;-70
2022/09/27 03:09:27;;;;;;;3.20;0.47;;;11.30;89.00;;;;;;5092867;28;20020;-70
2022/09/27 03:11:52;;;;;;;2.22;0.30;;;11.30;88.80;;;;;;5092925;28;20017;-71
2022/09/27 03:14:18;;;;;;;1.35;0.40;;;11.30;88.60;;;;;;5075107;28;20092;-70
2022/09/27 03:16:43;;;;;;;4.13;0.70;;;11.20;88.50;;;;;;5092938;28;20524;-71
2022/09/27 03:19:09;;;;;;;0.93;0.35;;;11.20;88.40;;;;;;5092787;28;20036;-71
2022/09/27 03:21:35;;;;;;;2.80;0.40;;;11.20;88.20;;;;;;5092665;28;20028;-71
2022/09/27 03:24:01;;;;;;;1.30;0.30;;;11.20;88.00;;;;;;5092740;28;20055;-71
2022/09/27 03:26:27;;;;;;;3.30;0.32;;;11.20;88.20;;;;;;5092684;28;20027;-71
2022/09/27 03:28:53;;;;;;;3.60;0.32;;;11.20;88.10;;;;;;5092584;28;20025;-70
2022/09/27 03:31:18;;;;;;;1.27;0.40;;;11.20;87.90;;;;;;5092637;28;20031;-70
2022/09/27 03:33:44;;;;;;;2.75;0.52;;;11.20;87.90;;;;;;5092652;28;20033;-71
2022/09/27 03:36:10;;;;;;;2.08;0.50;;;11.20;87.90;;;;;;5093611;28;20079;-70
2022/09/27 03:38:36;;;;;;;3.38;0.88;;;11.20;87.80;;;;;;5096126;28;20029;-71
2022/09/27 03:41:02;;;;;;;2.20;0.55;;;11.20;87.80;;;;;;5096034;28;20036;-71
2022/09/27 03:43:27;;;;;;;2.65;0.65;;;11.20;87.80;;;;;;5095032;28;20100;-70
2022/09/27 03:45:53;;;;;;;4.15;0.47;;;11.10;87.70;;;;;;5096113;28;20084;-71
2022/09/27 03:48:19;;;;;;;3.13;0.50;;;11.10;87.50;;;;;;5095991;28;20028;-71
2022/09/27 03:50:44;;;;;;;2.55;0.70;;;11.10;87.60;;;;;;5095000;28;20054;-70
2022/09/27 03:53:10;;;;;;;1.08;0.60;;;11.10;87.50;;;;;;5096029;28;20028;-71
2022/09/27 03:55:35;;;;;;;2.28;0.57;;;11.00;87.70;;;;;;5095840;28;20032;-70
2022/09/27 03:58:01;;;;;;;1.35;0.68;;;11.00;87.80;;;;;;5095822;28;20092;-70
2022/09/27 04:00:27;;;;;;;2.10;0.60;;;10.90;87.80;;;;;;5094683;28;20036;-71
2022/09/27 04:02:52;;;;;;;4.05;0.90;;;10.90;88.00;;;;;;5094744;28;20025;-71
2022/09/27 04:05:18;;;;;;;2.63;0.40;;;10.80;88.00;;;;;;5095431;28;20053;-71
2022/09/27 04:07:48;;;;;;;0.52;0.30;;;10.80;88.10;;;;;;5095624;28;20063;-70
2022/09/27 04:10:14;;;;;;;4.75;0.80;;;10.80;88.10;;;;;;5095620;28;20060;-72
2022/09/27 04:12:39;;;;;;;5.20;0.70;;;10.80;88.30;;;;;;5094601;28;20032;-71
2022/09/27 04:15:07;;;;;;;0.55;0.35;;;10.80;88.30;;;;;;5094494;28;20064;-70
2022/09/27 04:17:33;;;;;;;3.75;1.08;;;10.70;88.20;;;;;;5095454;28;20047;-71
2022/09/27 04:20:00;;;;;;;1.55;0.40;;;10.70;88.40;;;;;;5095333;28;20059;-71
2022/09/27 04:22:26;;;;;;;1.23;0.38;;;10.70;88.30;;;;;;5095341;28;20115;-71
2022/09/27 04:24:51;;;;;;;1.50;0.50;;;10.70;88.00;;;;;;5095316;28;20028;-71
2022/09/27 04:27:17;;;;;;;4.72;0.77;;;10.70;88.20;;;;;;5095302;28;20029;-71
2022/09/27 04:29:44;;;;;;;3.33;0.50;;;10.70;88.30;;;;;;5095168;28;20025;-71
2022/09/27 04:32:11;;;;;;;1.95;0.60;;;10.70;88.20;;;;;;5095199;28;20023;-71
2022/09/27 04:37:21;;;;;;;3.70;0.65;;;10.70;87.80;;;;;;5095173;28;20036;-70
2022/09/27 04:39:48;;;;;;;2.83;0.30;;;10.70;87.80;;;;;;5094945;28;20021;-70
2022/09/27 04:42:14;;;;;;;3.90;0.80;;;10.70;87.50;;;;;;5094977;28;20012;-71
2022/09/27 04:44:40;;;;;;;3.28;0.65;;;10.70;87.40;;;;;;5094880;28;20022;-71
2022/09/27 04:47:05;;;;;;;3.13;0.57;;;10.70;87.20;;;;;;5094447;28;20031;-70
2022/09/27 04:49:31;;;;;;;1.10;0.22;;;10.70;87.20;;;;;;5094835;28;20101;-71
2022/09/27 04:51:56;;;;;;;2.83;0.30;;;10.70;86.90;;;;;;5094911;28;20040;-71
2022/09/27 04:54:22;;;;;;;2.10;0.43;;;10.80;86.70;;;;;;5094738;28;20074;-71
2022/09/27 04:56:48;;;;;;;1.05;0.20;;;10.70;86.10;;;;;;5094666;28;20028;-71
2022/09/27 04:59:14;;;;;;;0.20;0.20;;;10.70;85.90;;;;;;5094646;28;20048;-70
2022/09/27 05:01:40;;;;;;;0.98;0.30;;;10.70;86.10;;;;;;5094490;28;20466;-71
2022/09/27 05:04:05;;;;;;;2.53;0.20;;;10.70;86.10;;;;;;5094337;28;20067;-70
2022/09/27 05:06:31;;;;;;;0.63;0.20;;;10.80;86.20;;;;;;5094501;28;20028;-70
2022/09/27 05:08:57;;;;;;;1.73;0.30;;;10.70;85.90;;;;;;5094411;28;20043;-71
2022/09/27 05:11:23;;;;;;;1.40;0.40;;;10.80;85.90;;;;;;5094391;28;20025;-71
2022/09/27 05:13:49;;;;;;;1.38;0.20;;;10.70;85.80;;;;;;5094319;28;20032;-71
2022/09/27 05:16:15;;;;;;;2.60;0.40;;;10.70;85.80;;;;;;5094244;28;20029;-70
2022/09/27 05:18:41;;;;;;;2.60;0.65;;;10.70;86.00;;;;;;5094233;28;20024;-71
2022/09/27 05:21:07;;;;;;;1.75;0.30;;;10.70;86.00;;;;;;5094248;28;20054;-71
2022/09/27 05:23:33;;;;;;;2.97;0.40;;;10.70;86.00;;;;;;5094144;28;20095;-72
2022/09/27 05:26:06;;;;;;;0.57;0.30;;;10.70;86.10;;;;;;5093172;28;20096;-71
2022/09/27 05:28:34;;;;;;;0.70;0.30;;;10.60;86.20;;;;;;5094038;28;20017;-70
2022/09/27 05:31:00;;;;;;;2.72;0.20;;;10.60;86.20;;;;;;5094008;28;20047;-71
2022/09/27 05:33:25;;;;;;;0.90;0.40;;;10.60;85.90;;;;;;5093886;28;20183;-71
2022/09/27 05:35:56;;;;;;;0.95;0.35;;;10.60;86.10;;;;;;5093921;28;20029;-72
2022/09/27 05:38:22;;;;;;;1.50;0.20;;;10.70;86.50;;;;;;5093852;28;20353;-72
2022/09/27 05:40:49;;;;;;;2.60;0.47;;;10.60;86.60;;;;;;5093764;28;20025;-71
2022/09/27 05:43:16;;;;;;;2.67;0.52;;;10.50;87.10;;;;;;5093796;28;20023;-72
2022/09/27 05:45:43;;;;;;;0.75;0.30;;;10.50;87.50;;;;;;5093749;28;20036;-71
2022/09/27 05:48:09;;;;;;;4.97;0.40;;;10.50;87.70;;;;;;5093742;28;20020;-71
2022/09/27 05:50:35;;;;;;;0.10;0.10;;;10.50;87.80;;;;;;5093696;28;20027;-71
2022/09/27 05:53:01;;;;;;;1.52;0.15;;;10.50;87.80;;;;;;5093654;28;20032;-71
2022/09/27 05:55:26;;;;;;;1.98;0.22;;;10.50;87.60;;;;;;5093627;28;20062;-71
2022/09/27 05:57:59;;;;;;;1.55;0.40;;;10.50;87.60;;;;;;5093425;28;20028;-71
2022/09/27 06:00:26;;;;;;;0.75;0.35;;;10.50;87.70;;;;;;5092997;28;20051;-71
2022/09/27 06:02:57;;;;;;;1.00;0.25;;;10.50;87.70;;;;;;5093549;28;20027;-71
2022/09/27 06:05:24;;;;;;;3.20;0.40;;;10.50;87.60;;;;;;5092272;28;20128;-72
2022/09/27 06:07:51;;;;;;;2.72;0.30;;;10.60;87.50;;;;;;5093404;28;20028;-71
2022/09/27 06:10:18;;;;;;;1.25;0.38;;;10.50;87.30;;;;;;5093447;28;20027;-71
2022/09/27 06:12:44;;;;;;;3.13;0.35;;;10.50;87.30;;;;;;5092316;28;20088;-71
2022/09/27 06:15:10;;;;;;;1.63;0.20;;;10.50;87.50;;;;;;5093375;28;20032;-71
2022/09/27 06:17:36;;;;;;;0.55;0.30;;;10.50;87.30;;;;;;5093370;28;20020;-71
2022/09/27 06:20:03;;;;;;;1.85;0.20;;;10.50;87.50;;;;;;5093393;28;20044;-72
2022/09/27 06:22:29;;;;;;;0.38;0.20;;;10.50;87.50;;;;;;5093319;28;20086;-71
2022/09/27 06:24:54;;;;;;;0.70;0.30;;;10.50;87.50;;;;;;5093287;28;20088;-71
2022/09/27 06:27:20;;;;;;;0.57;0.30;;;10.50;87.70;;;;;;5093297;28;20048;-71
2022/09/27 06:29:46;;;;;;;0.60;0.20;;;10.50;87.60;;;;;;5093167;28;20032;-71
2022/09/27 06:32:12;;;;;;;0.88;0.20;;;10.60;87.70;;;;;;5092371;28;20017;-71
2022/09/27 06:34:38;;;;;;;0.63;0.52;;;10.60;88.80;;;;;;5093174;28;20380;-71
2022/09/27 06:37:03;;;;;;;0.65;0.20;;;10.60;87.60;;;;;;5093334;28;20047;-71
2022/09/27 06:39:32;;;;;;;2.38;0.40;;;10.60;87.50;;;;;;5093121;28;20047;-71
2022/09/27 06:41:57;;;;;;;1.05;0.20;;;10.60;87.40;;;;;;5093070;28;20045;-71
2022/09/27 06:44:23;;;;;;;1.17;0.32;;;10.70;88.30;;;;;;5093134;28;20025;-70
2022/09/27 06:46:53;;;;;;;1.40;0.30;;;10.80;87.50;;;;;;5093092;28;20032;-71
2022/09/27 06:49:21;;;;;;;4.40;0.55;;;10.80;87.50;;;;;;5092092;28;20025;-71
2022/09/27 06:51:47;;;;;;;1.42;0.40;;;10.90;87.40;;;;;;5093049;28;20028;-71
2022/09/27 06:54:13;;;;;;;0.95;0.30;;;10.90;87.30;;;;;;5092983;28;20036;-71
2022/09/27 06:56:39;;;;;;;1.50;0.40;;;10.90;87.20;;;;;;5093009;28;20025;-71
2022/09/27 07:01:51;;;;;;;3.80;0.60;;;10.90;87.30;;;;;;5093037;28;20043;-71
2022/09/27 07:04:17;;;;;;;0.30;0.10;;;10.90;87.50;;;;;;5092704;28;20052;-71
2022/09/27 07:06:43;;;;;;;0.73;0.43;;;10.90;87.60;;;;;;5092897;28;20525;-70
2022/09/27 07:09:09;;;;;;;3.05;0.80;;;10.90;87.80;;;;;;5092865;28;20080;-71
2022/09/27 07:11:37;;;;;;;1.88;0.90;;;10.90;87.60;;;;;;5096154;28;20032;-71
2022/09/27 07:14:03;;;;;;;4.00;1.83;;;10.80;87.90;;;;;;5096769;28;20032;-71
2022/09/27 07:16:33;;;;;;;3.08;1.27;;;10.80;87.80;;;;;;5096594;28;20056;-71
2022/09/27 07:18:59;;;;;;;2.10;1.10;;;10.80;87.90;;;;;;5096562;28;20024;-71
2022/09/27 07:21:25;;;;;;;2.03;0.47;;;10.80;88.30;;;;;;5096438;28;20025;-72
2022/09/27 07:23:51;;;;;;;1.77;0.40;;;10.80;87.90;;;;;;5096484;28;20025;-72
2022/09/27 07:26:17;;;;;;;0.55;0.38;;;10.80;88.20;;;;;;5095465;28;20084;-71
2022/09/27 07:28:43;;;;;;;0.77;0.52;;;10.80;88.20;;;;;;5096411;28;20491;-71
2022/09/27 07:31:10;;;;;;;1.90;0.50;;;10.80;88.70;;;;;;5096423;28;20021;-72
2022/09/27 07:33:35;;;;;;;1.65;0.52;;;10.80;88.80;;;;;;5096301;28;20028;-71
2022/09/27 07:36:07;;;;;;;2.47;0.75;;;10.80;88.80;;;;;;5096238;28;20054;-71
2022/09/27 07:38:33;;;;;;;2.40;0.70;;;10.90;88.60;;;;;;5096264;28;20028;-71
2022/09/27 07:41:04;;;;;;;1.35;0.73;;;10.80;88.80;;;;;;5096103;28;20056;-72
2022/09/27 07:43:29;;;;;;;1.00;0.65;;;10.80;88.80;;;;;;5096136;28;20012;-71
2022/09/27 07:45:55;;;;;;;2.47;1.05;;;10.80;88.80;;;;;;5096080;28;20059;-72
2022/09/27 07:48:21;;;;;;;1.23;0.70;;;10.90;89.70;;;;;;5096028;28;20039;-72
2022/09/27 07:50:47;;;;;;;1.30;0.93;;;10.90;88.80;;;;;;5095968;28;20029;-72
2022/09/27 07:53:12;;;;;;;2.17;1.10;;;10.90;88.70;;;;;;5095949;28;20024;-71
2022/09/27 07:55:39;;;;;;;2.45;1.02;;;10.80;88.60;;;;;;5095859;28;20041;-71
2022/09/27 07:58:10;;;;;;;2.38;1.25;;;10.80;89.10;;;;;;5095868;28;20043;-71
2022/09/27 08:00:36;;;;;;;1.98;1.30;;;10.70;89.10;;;;;;5095779;28;20025;-71
2022/09/27 08:03:14;;;;;;;2.80;1.40;;;10.70;89.60;;;;;;5095780;28;20024;-71
2022/09/27 08:05:44;;;;;;;3.97;1.52;;;10.70;89.60;;;;;;5095502;28;20060;-71
2022/09/27 08:08:09;;;;;;;2.97;1.73;;;10.70;89.90;;;;;;5093662;28;20032;-71
2022/09/27 08:10:35;;;;;;;4.53;1.50;;;10.80;90.10;;;;;;5095586;28;20035;-71
2022/09/27 08:13:02;;;;;;;3.30;1.75;;;10.80;90.00;;;;;;5095546;28;20036;-71
2022/09/27 08:15:30;;;;;;;3.83;1.73;;;10.70;90.10;;;;;;5095479;28;20044;-71
2022/09/27 08:17:56;;;;;;;3.17;1.92;;;10.70;90.40;;;;;;5095463;28;20039;-71
2022/09/27 08:20:22;;;;;;;4.57;2.17;;;10.80;90.10;;;;;;5095345;28;20084;-71
2022/09/27 08:22:47;;;;;;;4.57;2.22;;;10.80;90.20;;;;;;5094548;28;20032;-71
2022/09/27 08:25:13;;;;;;;3.42;2.35;;;10.80;90.00;;;;;;5095344;28;20024;-72
2022/09/27 08:27:40;;;;;;;3.78;2.30;;;10.70;90.20;;;;;;5095283;28;20031;-71
2022/09/27 08:30:06;;;;;;;4.95;2.28;;;10.70;90.20;;;;;;5095191;28;20032;-71
2022/09/27 08:32:31;;;;;;;3.72;2.40;;;10.80;90.20;;;;;;5095216;28;20036;-71
2022/09/27 08:34:58;;;;;;;8.00;2.70;;;10.80;90.10;;;;;;5095162;28;20029;-71
2022/09/27 08:37:24;;;;;;;6.22;2.20;;;10.80;90.20;;;;;;5095085;28;20066;-71
2022/09/27 08:39:50;;;;;;;4.78;2.17;;;10.80;90.20;;;;;;5094984;28;20044;-71
2022/09/27 08:42:38;;;;;;;4.28;2.15;;;10.90;90.40;;;;;;5095130;28;20021;-72
2022/09/27 08:45:46;;;;;;;7.32;2.65;;;10.90;90.20;;;;;;5095126;28;20021;-72
2022/09/27 08:48:14;;;;;;;6.85;2.40;;;10.90;90.20;;;;;;5083872;28;20092;-71
2022/09/27 08:50:43;;;;;;;3.88;2.53;;;11.00;90.20;;;;;;5094818;28;20028;-71
2022/09/27 08:53:15;;;;;;;4.07;2.15;;;11.00;90.00;;;;;;5094776;28;20020;-71
2022/09/27 08:55:46;;;;;;;5.10;2.50;;;11.00;90.10;;;;;;5094745;28;20111;-71
2022/09/27 08:58:39;;;;;;;4.43;2.90;;;11.10;90.30;;;;;;5094718;28;20027;-71
2022/09/27 09:01:12;;;;;;;6.32;2.83;;;11.20;90.40;;;;;;5094734;28;20044;-71
2022/09/27 09:03:39;;;;;;;;;;;11.20;90.10;;;;;;5094858;28;20016;-71
2022/09/27 09:06:17;;;;;;;6.53;2.60;;;11.20;89.70;;;;;;5094661;28;19908;-71
2022/09/27 09:09:09;;;;;;;5.70;2.72;;;11.20;89.90;;;;;;5094628;28;20033;-71
2022/09/27 09:14:58;;;;;;;5.45;2.92;;;11.20;90.00;;;;;;5094611;28;20043;-71
2022/09/27 09:17:24;;;;;;;6.78;2.92;;;11.20;89.20;;;;;;5094336;28;20021;-71
2022/09/27 09:20:11;;;;;;;5.43;2.85;;;11.20;89.40;;;;;;5094137;28;20024;-72
2022/09/27 09:22:53;;;;;;;6.47;3.08;;;11.20;89.60;;;;;;5094238;28;20062;-71
2022/09/27 09:25:40;;;;;;;4.95;3.38;;;11.30;89.90;;;;;;5094201;28;20024;-71
2022/09/27 09:28:36;;;;;;;6.38;3.28;;;11.30;90.00;;;;;;5094197;28;20039;-71
2022/09/27 09:31:32;;;;;;;9.15;3.45;;;11.30;89.60;;;;;;5094218;28;20059;-72
2022/09/27 09:34:14;;;;;;;6.28;3.80;;;11.30;89.70;;;;;;5093927;28;20428;-71
2022/09/27 09:37:02;;;;;;;7.63;3.50;;;11.30;90.00;;;;;;5094110;28;20052;-70
2022/09/27 09:39:40;;;;;;;6.75;3.65;;;11.30;90.00;;;;;;5084528;28;20043;-72
2022/09/27 09:42:11;;;;;;;7.43;3.58;;;11.30;89.80;;;;;;5092767;28;20032;-72
2022/09/27 09:44:57;;;;;;;8.15;3.97;;;11.30;89.90;;;;;;5093833;28;20032;-71
2022/09/27 09:47:42;;;;;;;7.18;4.45;;;11.30;90.00;;;;;;5093341;28;20059;-71
2022/09/27 09:50:25;;;;;;;7.88;4.10;;;11.30;90.00;;;;;;5093895;28;20045;-71
2022/09/27 09:52:58;;;;;;;9.07;4.10;;;11.30;90.00;;;;;;5093717;28;20052;-72
2022/09/27 09:55:27;;;;;;;;;;;11.20;89.80;;;;;;5094119;28;20028;-73
2022/09/27 09:58:14;;;;;;;8.45;3.20;;;11.20;90.10;;;;;;5093637;28;19905;-73
2022/09/27 10:00:40;;;;;;;6.00;3.25;;;11.20;90.20;;;;;;5093545;28;20075;-72
2022/09/27 10:03:07;;;;;;;8.80;4.15;;;11.30;90.50;;;;;;5092583;28;20070;-72
2022/09/27 10:05:33;;;;;;;6.72;3.70;;;11.30;90.30;;;;;;5093335;28;20040;-72
2022/09/27 10:08:02;;;;;;;6.80;3.90;;;11.30;90.40;;;;;;5093447;28;20028;-72
2022/09/27 10:10:28;;;;;;;6.00;3.83;;;11.30;90.20;;;;;;5093411;28;20020;-72
2022/09/27 10:12:55;;;;;;;8.88;4.07;;;11.40;90.40;;;;;;5093431;28;20443;-72
2022/09/27 10:15:27;;;;;;;6.35;3.78;;;11.40;90.10;;;;;;5092246;28;20032;-72
2022/09/27 10:17:58;;;;;;;6.30;3.47;;;11.40;90.10;;;;;;5093471;28;20027;-73
2022/09/27 10:20:40;;;;;;;7.60;3.17;;;11.40;90.20;;;;;;5093318;28;20029;-72
2022/09/27 10:23:13;;;;;;;5.95;3.08;;;11.50;90.00;;;;;;5093564;28;20040;-72
2022/09/27 10:25:46;;;;;;;6.95;3.53;;;11.40;89.30;;;;;;5093354;28;20067;-73
2022/09/27 10:28:37;;;;;;;8.43;3.30;;;11.30;89.00;;;;;;5093342;28;20024;-72
2022/09/27 10:31:18;;;;;;;6.80;2.78;;;11.30;89.40;;;;;;5093312;28;20044;-73
2022/09/27 10:33:56;;;;;;;5.10;2.85;;;11.30;89.20;;;;;;5092287;28;20093;-73
2022/09/27 10:36:24;;;;;;;5.43;2.35;;;11.30;89.40;;;;;;5093222;28;20025;-72
2022/09/27 10:38:55;;;;;;;4.22;2.35;;;11.40;89.50;;;;;;5093148;28;20096;-72
2022/09/27 10:41:21;;;;;;;2.67;1.80;;;11.40;89.50;;;;;;5093083;28;20033;-72
2022/09/27 10:43:47;;;;;;;2.90;1.48;;;11.50;88.00;;;;;;5092198;28;20135;-72
2022/09/27 10:46:32;;;;;;;4.70;1.90;;;11.40;88.40;;;;;;5096016;28;20168;-73
2022/09/27 10:49:40;;;;;;;3.45;1.50;;;11.50;88.40;;;;;;5097205;28;20458;-73
2022/09/27 10:52:17;;;;;;;3.40;1.67;;;11.50;88.30;;;;;;5035489;28;20030;-73
2022/09/27 10:54:56;;;;;;;3.45;1.33;;;11.50;88.30;;;;;;5035413;28;20029;-73
2022/09/27 10:57:24;;;;;;;3.40;1.15;;;11.40;88.30;;;;;;5076222;28;20033;-73
2022/09/27 11:00:07;;;;;;;2.10;1.33;;;11.40;88.70;;;;;;5097016;28;20048;-72
2022/09/27 11:02:37;;;;;;;2.35;1.10;;;11.50;88.90;;;;;;5096925;28;20059;-72
2022/09/27 11:05:06;;;;;;;3.83;1.30;;;11.50;88.60;;;;;;5096779;28;20047;-72
2022/09/27 11:07:36;;;;;;;2.63;1.30;;;11.50;89.00;;;;;;5096915;28;20048;-73
2022/09/27 11:10:19;;;;;;;3.17;1.50;;;11.60;89.30;;;;;;5096764;28;20023;-73
2022/09/27 11:12:45;;;;;;;2.17;0.90;;;11.70;90.00;;;;;;5096854;28;20071;-73
2022/09/27 11:15:18;;;;;;;2.42;0.90;;;11.70;89.00;;;;;;5096636;28;20021;-73
2022/09/27 11:18:00;;;;;;;1.75;0.80;;;11.70;87.80;;;;;;5096676;28;20072;-72
2022/09/27 11:20:51;;;;;;;1.60;0.75;;;11.70;88.00;;;;;;5096575;28;20056;-73
2022/09/27 11:23:20;;;;;;;1.08;0.65;;;11.70;86.90;;;;;;5093299;28;20047;-72
2022/09/27 11:25:53;;;;;;;1.88;0.77;;;11.70;86.90;;;;;;5096438;28;20021;-72
2022/09/27 11:28:30;;;;;;;1.77;0.80;;;11.70;87.10;;;;;;5096368;28;20051;-72
2022/09/27 11:31:09;;;;;;;1.17;0.70;;;11.70;86.50;;;;;;5096544;28;20099;-73
2022/09/27 11:34:07;;;;;;;2.10;0.70;;;11.60;86.80;;;;;;5096493;28;20028;-73
2022/09/27 11:36:45;;;;;;;1.67;0.65;;;11.70;86.30;;;;;;5084410;28;20029;-72
2022/09/27 11:39:23;;;;;;;2.00;0.70;;;11.70;86.90;;;;;;5096226;28;20025;-73
2022/09/27 11:41:58;;;;;;;3.80;1.00;;;11.70;87.00;;;;;;5096266;28;20080;-72
2022/09/27 11:44:26;;;;;;;1.27;0.80;;;11.70;87.50;;;;;;5095224;28;20028;-72
2022/09/27 11:47:14;;;;;;;1.35;0.47;;;11.80;87.40;;;;;;5096118;28;20020;-73
2022/09/27 11:49:49;;;;;;;0.98;0.43;;;11.80;85.80;;;;;;5096020;28;20024;-72
2022/09/27 11:52:27;;;;;;;1.77;0.60;;;11.80;86.50;;;;;;5095969;28;20028;-72
2022/09/27 11:55:08;;;;;;;1.70;0.40;;;11.80;86.70;;;;;;5095932;28;20055;-73
2022/09/27 11:58:15;;;;;;;0.98;0.68;;;11.80;86.70;;;;;;5094847;28;20020;-72
2022/09/27 12:00:59;;;;;;;0.95;0.52;;;11.90;87.10;;;;;;5078864;28;20040;-72
2022/09/27 12:03:45;;;;;;;3.20;0.30;;;11.90;86.40;;;;;;5095790;28;20027;-72
2022/09/27 12:06:20;;;;;;;2.22;0.50;;;11.90;86.40;;;;;;5095942;28;20024;-72
2022/09/27 12:08:58;;;;;;;0.93;0.50;;;11.90;85.70;;;;;;5095720;28;20016;-72
2022/09/27 12:11:35;;;;;;;1.27;0.50;;;11.90;85.60;;;;;;5095815;28;20036;-72
2022/09/27 12:14:19;;;;;;;1.17;0.57;;;11.90;86.20;;;;;;5095633;28;20035;-73
2022/09/27 12:16:46;;;;;;;1.98;0.52;;;12.00;86.50;;;;;;5095524;28;20034;-72
2022/09/27 12:19:37;;;;;;;2.05;0.77;;;12.00;86.40;;;;;;5095516;28;20031;-73
2022/09/27 12:22:06;;;;;;;0.45;0.32;;;12.10;86.10;;;;;;5088163;28;20056;-72
2022/09/27 12:24:33;;;;;;;1.75;0.38;;;12.10;85.80;;;;;;5095393;28;20025;-73
2022/09/27 12:27:08;;;;;;;1.75;0.50;;;12.10;86.00;;;;;;5095368;28;20030;-72
2022/09/27 12:29:38;;;;;;;0.85;0.50;;;12.20;86.00;;;;;;5095306;28;20024;-72
2022/09/27 12:32:45;;;;;;;3.90;0.85;;;12.20;85.70;;;;;;5095246;28;20017;-72
2022/09/27 12:35:35;;;;;;;0.57;0.30;;;12.20;85.70;;;;;;5084278;28;20060;-73
2022/09/27 12:38:41;;;;;;;1.90;0.55;;;12.20;85.00;;;;;;5095168;28;20021;-72
2022/09/27 12:41:11;;;;;;;0.60;0.30;;;12.20;84.90;;;;;;5094559;28;20070;-72
2022/09/27 12:43:39;;;;;;;1.15;0.32;;;12.20;85.00;;;;;;5095100;28;20016;-72
2022/09/27 12:46:16;;;;;;;0.60;0.30;;;12.20;84.10;;;;;;5094956;28;20028;-72
2022/09/27 12:48:55;;;;;;;0.88;0.40;;;12.20;84.30;;;;;;5094937;28;20025;-73
2022/09/27 12:51:23;;;;;;;0.60;0.25;;;12.20;84.40;;;;;;5095054;28;20024;-73
2022/09/27 12:54:12;;;;;;;0.30;0.30;;;12.30;84.70;;;;;;5094743;28;20088;-72
2022/09/27 12:56:48;;;;;;;0.40;0.30;;;12.40;84.70;;;;;;5094766;28;20055;-71
2022/09/27 12:59:54;;;;;;;0.43;0.17;;;12.50;84.50;;;;;;5094667;28;20025;-72
2022/09/27 13:03:06;;;;;;;0.73;0.38;;;12.50;83.70;;;;;;5094759;28;20028;-72
2022/09/27 13:06:06;;;;;;;0.50;0.20;;;12.50;83.00;;;;;;5094383;28;20029;-71
2022/09/27 13:08:56;;;;;;;2.17;0.20;;;12.50;82.20;;;;;;5089416;28;20032;-73
2022/09/27 13:11:50;;;;;;;1.15;0.20;;;12.50;82.10;;;;;;5093326;28;20024;-72
2022/09/27 13:14:20;;;;;;;0.20;0.10;;;12.40;82.40;;;;;;5094408;28;20032;-72
2022/09/27 13:16:47;;;;;;;0.30;0.10;;;12.50;82.60;;;;;;5094349;28;20032;-73
2022/09/27 13:19:39;;;;;;;0.45;0.30;;;12.50;82.30;;;;;;5094239;28;20068;-73
2022/09/27 13:22:30;;;;;;;0.43;0.20;;;12.50;80.40;;;;;;5094176;28;20036;-73
2022/09/27 13:24:55;;;;;;;0.00;0.00;;;12.50;80.70;;;;;;5094041;28;20028;-73
2022/09/27 13:27:21;;;;;;;0.75;0.22;;;12.50;81.60;;;;;;5094116;28;20025;-72